Time;durP1;ratioP1;P1;durP2;ratioP2;P2;SDS_P1;SDS_P2;PMS_P1;PMS_P2;Temp;Humidity;BMP_temperature;BMP_pressure;BME280_temperature;BME280_humidity;BME280_pressure;Samples;Min_cycle;Max_cycle;Signal;HPM_P1;HPM_P2
2022/07/06 00:00:36;;;;;;;2.17;1.20;;;18.20;67.60;;;;;;5024452;28;20026;-91
2022/07/06 00:03:02;;;;;;;1.55;0.93;;;18.20;67.70;;;;;;5024188;28;20124;-89
2022/07/06 00:05:27;;;;;;;4.00;1.20;;;18.20;68.10;;;;;;5019347;28;20089;-90
2022/07/06 00:07:53;;;;;;;2.80;1.42;;;18.30;67.40;;;;;;5021381;28;20097;-90
2022/07/06 00:10:18;;;;;;;1.60;1.00;;;18.30;67.00;;;;;;4999786;28;20061;-91
2022/07/06 00:12:55;;;;;;;2.90;1.00;;;18.40;67.20;;;;;;5007504;28;20052;-91
2022/07/06 00:15:21;;;;;;;2.05;1.10;;;18.40;67.00;;;;;;5018256;28;20026;-90
2022/07/06 00:17:47;;;;;;;2.08;0.90;;;18.30;67.00;;;;;;5011906;28;20029;-91
2022/07/06 00:20:12;;;;;;;1.98;0.95;;;18.20;67.30;;;;;;5000993;28;20038;-91
2022/07/06 00:22:38;;;;;;;2.78;1.00;;;18.10;67.70;;;;;;5005229;28;20393;-90
2022/07/06 00:25:04;;;;;;;1.70;1.20;;;18.00;67.70;;;;;;5014743;28;20125;-90
2022/07/06 00:27:30;;;;;;;2.78;1.00;;;17.90;68.00;;;;;;5018004;28;20079;-89
2022/07/06 00:29:55;;;;;;;1.33;1.02;;;17.80;68.80;;;;;;5012549;28;20033;-91
2022/07/06 00:32:21;;;;;;;1.77;1.00;;;17.70;68.90;;;;;;5023087;28;20672;-90
2022/07/06 00:34:47;;;;;;;2.03;1.17;;;17.70;69.10;;;;;;5019447;28;20057;-90
2022/07/06 00:37:15;;;;;;;3.95;1.17;;;17.60;69.20;;;;;;5034173;28;20018;-90
2022/07/06 00:39:41;;;;;;;1.58;1.00;;;17.60;70.30;;;;;;5033413;28;20030;-90
2022/07/06 00:42:06;;;;;;;1.23;1.10;;;17.60;70.20;;;;;;5002832;28;20366;-90
2022/07/06 00:44:33;;;;;;;3.13;1.33;;;17.60;70.90;;;;;;4999066;28;20067;-91
2022/07/06 00:47:02;;;;;;;1.60;1.10;;;17.60;71.00;;;;;;5028688;28;20398;-90
2022/07/06 00:52:12;;;;;;;4.00;1.40;;;17.70;71.80;;;;;;5016131;28;20044;-91
2022/07/06 00:54:40;;;;;;;1.50;1.13;;;17.70;73.60;;;;;;5018888;28;20034;-91
2022/07/06 00:57:06;;;;;;;2.35;1.05;;;17.70;73.40;;;;;;5040966;28;20060;-90
2022/07/06 00:59:32;;;;;;;3.05;1.05;;;17.70;73.40;;;;;;5005263;28;20037;-90
2022/07/06 01:01:58;;;;;;;1.85;1.25;;;17.60;73.30;;;;;;5021320;28;20026;-90
2022/07/06 01:04:24;;;;;;;2.53;1.27;;;17.60;73.90;;;;;;5012454;28;20034;-89
2022/07/06 01:06:50;;;;;;;1.90;1.40;;;17.60;73.70;;;;;;5012268;28;20500;-90
2022/07/06 01:09:16;;;;;;;1.95;1.20;;;17.60;73.30;;;;;;5027503;28;20550;-89
2022/07/06 01:11:42;;;;;;;3.08;1.30;;;17.60;73.90;;;;;;5018693;28;20034;-90
2022/07/06 01:14:08;;;;;;;2.10;1.20;;;17.50;72.70;;;;;;5018567;28;20109;-91
2022/07/06 01:16:37;;;;;;;1.63;1.20;;;17.50;73.90;;;;;;5012866;28;20085;-90
2022/07/06 01:19:02;;;;;;;1.83;1.27;;;17.50;75.20;;;;;;5006349;28;20030;-90
2022/07/06 01:21:28;;;;;;;2.80;1.17;;;17.50;74.90;;;;;;5015736;28;20091;-90
2022/07/06 01:23:54;;;;;;;3.90;1.85;;;17.40;76.60;;;;;;5022425;28;20100;-90
2022/07/06 01:26:20;;;;;;;3.03;1.40;;;17.40;77.00;;;;;;5043847;28;20033;-91
2022/07/06 01:28:48;;;;;;;1.73;1.40;;;17.40;76.40;;;;;;5019685;28;20092;-90
2022/07/06 01:31:25;;;;;;;2.53;1.20;;;17.40;75.80;;;;;;5008346;28;20112;-90
2022/07/06 01:33:54;;;;;;;2.63;1.30;;;17.40;75.60;;;;;;5025784;28;20049;-91
2022/07/06 01:36:20;;;;;;;1.52;1.27;;;17.40;76.40;;;;;;5001756;28;20049;-91
2022/07/06 01:38:51;;;;;;;2.90;1.20;;;17.40;76.60;;;;;;5022872;28;20060;-91
2022/07/06 01:41:17;;;;;;;;;;;17.40;76.40;;;;;;5025629;28;20508;-91
2022/07/06 01:43:44;;;;;;;1.25;1.15;;;17.50;76.10;;;;;;5024572;28;19931;-90
2022/07/06 01:46:10;;;;;;;1.52;1.17;;;17.50;75.20;;;;;;5020074;28;20022;-92
2022/07/06 01:48:35;;;;;;;3.13;1.42;;;17.50;75.80;;;;;;5026487;28;20025;-92
2022/07/06 01:51:02;;;;;;;4.05;1.95;;;17.50;79.80;;;;;;5017394;28;20037;-92
2022/07/06 01:53:28;;;;;;;2.83;1.80;;;17.50;83.90;;;;;;5023466;28;20029;-91
2022/07/06 01:55:53;;;;;;;1.88;1.55;;;17.30;89.60;;;;;;5035127;28;20026;-92
2022/07/06 01:58:19;;;;;;;1.77;1.60;;;17.20;91.20;;;;;;5016908;28;20045;-91
2022/07/06 02:00:45;;;;;;;2.78;1.85;;;17.10;91.80;;;;;;5012979;28;20065;-91
2022/07/06 02:03:10;;;;;;;2.33;1.55;;;16.90;93.60;;;;;;5018333;28;20075;-92
2022/07/06 02:05:36;;;;;;;1.80;1.63;;;16.80;94.60;;;;;;5042013;28;20116;-91
2022/07/06 02:08:01;;;;;;;1.55;1.42;;;16.70;94.90;;;;;;5017807;28;20033;-91
2022/07/06 02:10:27;;;;;;;1.88;1.52;;;16.60;96.10;;;;;;5024384;28;20041;-91
2022/07/06 02:12:53;;;;;;;1.70;1.60;;;16.50;97.30;;;;;;5019993;28;20052;-91
2022/07/06 02:15:18;;;;;;;4.38;2.05;;;16.40;98.90;;;;;;5001306;28;20437;-92
2022/07/06 02:17:44;;;;;;;5.30;1.80;;;16.20;99.40;;;;;;5018967;28;20354;-92
2022/07/06 02:20:10;;;;;;;2.63;2.10;;;16.10;99.90;;;;;;5044921;28;20033;-92
2022/07/06 02:22:36;;;;;;;2.97;2.08;;;16.00;99.90;;;;;;5030781;28;20030;-92
2022/07/06 02:25:01;;;;;;;3.00;1.63;;;15.80;99.90;;;;;;5032224;28;20765;-92
2022/07/06 02:27:27;;;;;;;2.88;1.95;;;15.70;99.90;;;;;;5024909;28;20045;-92
2022/07/06 02:29:53;;;;;;;2.90;1.85;;;15.60;99.90;;;;;;5024051;28;20057;-92
2022/07/06 02:32:18;;;;;;;2.50;1.80;;;15.40;99.90;;;;;;5021801;28;20053;-91
2022/07/06 02:34:44;;;;;;;3.35;2.22;;;15.30;99.90;;;;;;5023956;28;20041;-91
2022/07/06 02:37:10;;;;;;;2.08;1.75;;;15.30;99.90;;;;;;5014823;28;20025;-91
2022/07/06 02:39:36;;;;;;;4.82;1.67;;;15.20;99.90;;;;;;5016303;28;20083;-90
2022/07/06 02:42:01;;;;;;;4.80;1.60;;;15.20;99.90;;;;;;5027222;28;20025;-92
2022/07/06 02:44:27;;;;;;;5.68;2.00;;;15.10;99.90;;;;;;5015104;28;20038;-92
2022/07/06 02:46:53;;;;;;;2.20;2.00;;;15.10;99.90;;;;;;5015370;28;20029;-93
2022/07/06 02:49:18;;;;;;;5.32;2.20;;;15.10;99.90;;;;;;5027853;28;20059;-93
2022/07/06 02:51:44;;;;;;;2.67;2.10;;;15.10;99.90;;;;;;5016249;28;20167;-92
2022/07/06 02:54:10;;;;;;;4.80;2.63;;;15.00;99.90;;;;;;5017796;28;20028;-92
2022/07/06 02:56:35;;;;;;;6.32;2.80;;;14.80;99.90;;;;;;5027636;28;20457;-91
2022/07/06 02:59:01;;;;;;;2.90;2.60;;;14.70;99.90;;;;;;5031804;28;20034;-92
2022/07/06 03:01:26;;;;;;;4.18;2.35;;;14.60;99.90;;;;;;5011713;28;20044;-93
2022/07/06 03:03:52;;;;;;;3.08;2.80;;;14.60;99.90;;;;;;5022503;28;20041;-91
2022/07/06 03:06:18;;;;;;;2.63;2.42;;;14.50;99.90;;;;;;5036527;28;20034;-92
2022/07/06 03:08:43;;;;;;;5.35;2.80;;;14.40;99.90;;;;;;5033835;28;20017;-91
2022/07/06 03:11:09;;;;;;;3.85;2.85;;;14.30;99.90;;;;;;5013980;28;20393;-91
2022/07/06 03:13:35;;;;;;;3.08;2.78;;;14.30;99.90;;;;;;5034176;28;20109;-92
2022/07/06 03:16:01;;;;;;;3.67;2.70;;;14.20;99.90;;;;;;5026809;28;20029;-92
2022/07/06 03:18:27;;;;;;;2.97;2.30;;;14.20;99.90;;;;;;5031194;28;20032;-92
2022/07/06 03:20:53;;;;;;;3.22;2.80;;;14.10;99.90;;;;;;5031956;28;20048;-91
2022/07/06 03:23:19;;;;;;;7.18;2.85;;;14.10;99.90;;;;;;5030076;28;20034;-92
2022/07/06 03:25:44;;;;;;;7.47;3.30;;;14.00;99.90;;;;;;5019465;28;20026;-91
2022/07/06 03:28:10;;;;;;;3.47;2.80;;;14.00;99.90;;;;;;5035813;28;20045;-92
2022/07/06 03:30:36;;;;;;;3.45;3.15;;;13.90;99.90;;;;;;5017360;28;20060;-92
2022/07/06 03:33:01;;;;;;;3.53;3.20;;;13.90;99.90;;;;;;5017859;28;20049;-91
2022/07/06 03:35:27;;;;;;;3.95;3.00;;;13.90;99.90;;;;;;5025742;28;20026;-91
2022/07/06 03:37:55;;;;;;;9.82;3.47;;;13.90;99.90;;;;;;5025751;28;20068;-92
2022/07/06 03:40:20;;;;;;;3.50;2.60;;;13.80;99.90;;;;;;5028762;28;20045;-94
2022/07/06 03:42:46;;;;;;;3.55;2.72;;;13.80;99.90;;;;;;5028823;28;20034;-94
2022/07/06 03:45:12;;;;;;;3.17;2.80;;;13.80;99.90;;;;;;5024731;28;20160;-92
2022/07/06 03:47:37;;;;;;;2.95;2.50;;;13.80;99.90;;;;;;5044556;28;20065;-91
2022/07/06 03:50:04;;;;;;;2.92;2.60;;;13.80;99.90;;;;;;5020310;28;20083;-92
2022/07/06 03:52:29;;;;;;;3.17;2.88;;;13.80;99.90;;;;;;5029679;28;20026;-91
2022/07/06 03:54:55;;;;;;;4.35;3.17;;;13.80;99.90;;;;;;5019259;28;20052;-92
2022/07/06 03:57:21;;;;;;;3.60;3.28;;;13.80;99.90;;;;;;5024190;28;20025;-91
2022/07/06 03:59:47;;;;;;;3.80;3.50;;;13.80;99.90;;;;;;5016779;28;20022;-92
2022/07/06 04:02:13;;;;;;;4.28;3.22;;;13.80;99.90;;;;;;5026173;28;20113;-91
2022/07/06 04:04:39;;;;;;;4.30;3.95;;;13.80;99.90;;;;;;5023169;28;20105;-91
2022/07/06 04:07:04;;;;;;;3.30;2.92;;;13.80;99.90;;;;;;5031389;28;20029;-91
2022/07/06 04:09:30;;;;;;;3.20;2.90;;;13.90;99.90;;;;;;5029432;28;20049;-91
2022/07/06 04:11:56;;;;;;;4.25;3.10;;;13.90;99.90;;;;;;5037232;28;20026;-90
2022/07/06 04:14:23;;;;;;;4.20;3.15;;;13.90;99.90;;;;;;5031042;28;20108;-90
2022/07/06 04:16:48;;;;;;;2.60;2.40;;;14.00;99.90;;;;;;5016588;28;20030;-93
2022/07/06 04:19:14;;;;;;;3.90;2.38;;;14.10;99.90;;;;;;5049372;28;20034;-93
2022/07/06 04:21:40;;;;;;;3.40;3.10;;;14.20;99.90;;;;;;5056696;28;20030;-93
2022/07/06 04:24:06;;;;;;;3.08;2.88;;;14.30;99.90;;;;;;5031856;28;20041;-93
2022/07/06 04:26:31;;;;;;;6.88;3.47;;;14.30;99.90;;;;;;5029879;28;20050;-90
2022/07/06 04:28:57;;;;;;;3.17;2.88;;;14.40;99.90;;;;;;5018321;28;20034;-90
2022/07/06 04:31:23;;;;;;;3.30;3.00;;;14.50;99.90;;;;;;5054824;28;20047;-91
2022/07/06 04:33:48;;;;;;;3.17;2.40;;;14.50;99.90;;;;;;5033337;28;20030;-91
2022/07/06 04:36:14;;;;;;;4.00;2.75;;;14.60;99.90;;;;;;5033462;28;20093;-91
2022/07/06 04:38:40;;;;;;;3.10;2.80;;;14.70;99.90;;;;;;5034432;28;20393;-90
2022/07/06 04:41:05;;;;;;;4.43;2.70;;;14.80;99.90;;;;;;5022446;28;20046;-91
2022/07/06 04:43:31;;;;;;;3.05;2.25;;;14.90;99.90;;;;;;5036951;28;20098;-91
2022/07/06 04:45:57;;;;;;;5.32;2.38;;;15.00;99.90;;;;;;5021368;28;20026;-91
2022/07/06 04:48:23;;;;;;;2.60;2.35;;;15.10;99.90;;;;;;5022519;28;20034;-91
2022/07/06 04:50:48;;;;;;;2.92;2.47;;;15.20;99.90;;;;;;5036466;28;20025;-90
2022/07/06 04:53:14;;;;;;;2.40;2.20;;;15.20;99.90;;;;;;5040443;28;20026;-91
2022/07/06 04:55:40;;;;;;;5.20;2.30;;;15.30;99.90;;;;;;5024963;28;20023;-91
2022/07/06 04:58:05;;;;;;;3.47;2.50;;;15.30;99.90;;;;;;5028814;28;20026;-91
2022/07/06 05:00:31;;;;;;;2.67;2.28;;;15.30;99.90;;;;;;5033864;28;20024;-90
2022/07/06 05:02:57;;;;;;;3.58;2.20;;;15.30;99.90;;;;;;5044383;28;20006;-90
2022/07/06 05:05:22;;;;;;;2.60;2.40;;;15.40;99.90;;;;;;5039868;28;20029;-91
2022/07/06 05:07:48;;;;;;;3.42;2.15;;;15.60;99.90;;;;;;5036973;28;20059;-91
2022/07/06 05:10:14;;;;;;;2.55;2.20;;;15.70;99.90;;;;;;5037560;28;20021;-91
2022/07/06 05:12:40;;;;;;;4.95;2.15;;;15.90;99.90;;;;;;5020347;28;20026;-91
2022/07/06 05:15:07;;;;;;;4.22;2.10;;;16.10;99.90;;;;;;5048007;28;20020;-92
2022/07/06 05:17:32;;;;;;;2.97;1.90;;;16.50;99.90;;;;;;5030128;28;20075;-93
2022/07/06 05:19:58;;;;;;;3.55;2.20;;;17.40;99.90;;;;;;5024113;28;20581;-91
2022/07/06 05:22:24;;;;;;;4.97;1.95;;;18.40;99.90;;;;;;5028491;28;20034;-91
2022/07/06 05:24:50;;;;;;;3.22;1.90;;;19.50;99.90;;;;;;5032266;28;20511;-90
2022/07/06 05:27:16;;;;;;;4.03;1.73;;;21.00;95.10;;;;;;5022428;28;20033;-91
2022/07/06 05:29:42;;;;;;;2.67;1.73;;;22.30;89.10;;;;;;5033473;28;20038;-92
2022/07/06 05:32:07;;;;;;;2.63;1.42;;;23.70;79.70;;;;;;5031656;28;20072;-92
2022/07/06 05:34:35;;;;;;;2.33;1.30;;;24.90;71.90;;;;;;5005234;28;20161;-92
2022/07/06 05:37:01;;;;;;;1.98;1.23;;;25.70;68.30;;;;;;5025148;28;20025;-91
2022/07/06 05:39:26;;;;;;;2.28;1.40;;;25.90;65.40;;;;;;5022884;28;20393;-92
2022/07/06 05:41:52;;;;;;;2.90;1.08;;;25.80;65.80;;;;;;5021742;28;20394;-92
2022/07/06 05:44:17;;;;;;;1.30;1.20;;;25.40;65.30;;;;;;5018820;28;20026;-92
2022/07/06 05:46:43;;;;;;;1.75;1.13;;;24.80;67.10;;;;;;5007051;28;20029;-92
2022/07/06 05:51:53;;;;;;;3.42;1.17;;;23.80;68.40;;;;;;5027644;28;20037;-93
2022/07/06 05:54:19;;;;;;;2.88;1.10;;;23.60;69.00;;;;;;5018934;28;20025;-92
2022/07/06 05:56:44;;;;;;;4.50;1.40;;;23.80;66.50;;;;;;5011761;28;20025;-93
2022/07/06 05:59:10;;;;;;;2.00;1.20;;;24.10;67.00;;;;;;5040935;28;20335;-93
2022/07/06 06:01:36;;;;;;;1.55;1.20;;;24.70;64.80;;;;;;5023247;28;20057;-93
2022/07/06 06:04:01;;;;;;;3.63;1.20;;;24.80;62.30;;;;;;5011627;28;20030;-93
2022/07/06 06:06:27;;;;;;;1.00;0.90;;;24.80;62.50;;;;;;5024772;28;20026;-92
2022/07/06 06:08:53;;;;;;;1.48;0.68;;;25.00;60.40;;;;;;5025972;28;20093;-93
2022/07/06 06:11:19;;;;;;;2.60;0.80;;;25.30;60.60;;;;;;5012186;28;20198;-93
2022/07/06 06:13:44;;;;;;;1.20;0.90;;;25.20;59.10;;;;;;5021222;28;20032;-93
2022/07/06 06:16:10;;;;;;;2.25;0.80;;;25.10;59.00;;;;;;5025576;28;20370;-92
2022/07/06 06:18:36;;;;;;;2.42;0.80;;;25.40;58.20;;;;;;5036563;28;20444;-93
2022/07/06 06:21:01;;;;;;;2.22;0.80;;;26.20;56.60;;;;;;5025190;28;20369;-92
2022/07/06 06:23:27;;;;;;;5.53;0.85;;;27.20;53.60;;;;;;5018359;28;20041;-92
2022/07/06 06:25:52;;;;;;;3.17;1.13;;;28.10;52.60;;;;;;5040570;28;20040;-92
2022/07/06 06:28:18;;;;;;;1.30;0.90;;;28.70;49.90;;;;;;5022591;28;20044;-93
2022/07/06 06:30:47;;;;;;;1.58;0.70;;;29.10;48.00;;;;;;5003303;28;20045;-92
2022/07/06 06:33:16;;;;;;;3.55;0.85;;;29.70;47.70;;;;;;5018807;28;20029;-92
2022/07/06 06:35:44;;;;;;;3.67;0.82;;;30.30;47.20;;;;;;5020094;28;20034;-93
2022/07/06 06:38:10;;;;;;;3.03;0.75;;;30.60;45.30;;;;;;5010929;28;20117;-92
2022/07/06 06:40:36;;;;;;;2.13;0.88;;;31.00;43.90;;;;;;5029607;28;20056;-91
2022/07/06 06:43:02;;;;;;;3.28;0.70;;;31.40;43.70;;;;;;5014985;28;20481;-92
2022/07/06 06:45:30;;;;;;;1.75;0.70;;;31.90;42.40;;;;;;5011770;28;20080;-92
2022/07/06 06:47:56;;;;;;;0.60;0.60;;;32.40;41.70;;;;;;5025632;28;20025;-91
2022/07/06 06:50:25;;;;;;;3.58;0.80;;;32.60;41.40;;;;;;5015735;28;20033;-92
2022/07/06 06:52:51;;;;;;;2.03;0.90;;;33.10;39.20;;;;;;5018758;28;20029;-92
2022/07/06 06:55:17;;;;;;;7.00;0.82;;;33.00;38.30;;;;;;5009834;28;20397;-91
2022/07/06 06:57:43;;;;;;;1.00;0.77;;;33.30;40.10;;;;;;5019354;28;20034;-92
2022/07/06 07:00:10;;;;;;;4.03;0.68;;;33.30;38.60;;;;;;5025493;28;20030;-92
2022/07/06 07:02:35;;;;;;;1.88;0.52;;;33.20;39.50;;;;;;5026153;28;20064;-92
2022/07/06 07:05:02;;;;;;;2.65;0.60;;;33.40;38.90;;;;;;5029088;28;20482;-92
2022/07/06 07:07:28;;;;;;;2.22;0.60;;;33.80;38.70;;;;;;5019498;28;20030;-92
2022/07/06 07:09:53;;;;;;;3.63;0.70;;;34.00;38.50;;;;;;5012870;28;20037;-93
2022/07/06 07:12:19;;;;;;;1.15;0.80;;;34.30;39.20;;;;;;5016181;28;20037;-92
2022/07/06 07:14:45;;;;;;;3.47;0.88;;;33.90;38.20;;;;;;5020477;28;20054;-92
2022/07/06 07:17:11;;;;;;;1.58;0.60;;;34.10;39.30;;;;;;5019401;28;20091;-93
2022/07/06 07:19:37;;;;;;;1.70;0.60;;;34.60;35.80;;;;;;5022410;28;20405;-92
2022/07/06 07:22:03;;;;;;;1.25;0.60;;;34.80;35.70;;;;;;5021070;28;20490;-92
2022/07/06 07:24:29;;;;;;;1.85;0.60;;;34.80;35.40;;;;;;5016091;28;20033;-91
2022/07/06 07:26:55;;;;;;;1.55;0.60;;;34.80;37.30;;;;;;5015931;28;20055;-92
2022/07/06 07:29:21;;;;;;;0.82;0.68;;;34.70;36.20;;;;;;5037465;28;20045;-93
2022/07/06 07:31:47;;;;;;;1.25;0.60;;;34.60;35.50;;;;;;5022843;28;20037;-92
2022/07/06 07:34:12;;;;;;;1.40;0.70;;;34.20;35.10;;;;;;5021695;28;20485;-93
2022/07/06 07:36:38;;;;;;;2.75;0.63;;;34.20;36.20;;;;;;5005492;28;20030;-92
2022/07/06 07:39:04;;;;;;;1.45;0.70;;;34.60;36.90;;;;;;5026154;28;20381;-92
2022/07/06 07:41:30;;;;;;;7.57;0.80;;;35.10;35.00;;;;;;5011399;28;20478;-91
2022/07/06 07:43:56;;;;;;;2.95;0.65;;;35.80;35.20;;;;;;5017927;28;20592;-92
2022/07/06 07:46:22;;;;;;;1.05;0.60;;;35.80;33.60;;;;;;5013542;28;20038;-94
2022/07/06 07:48:47;;;;;;;1.05;0.60;;;35.90;34.60;;;;;;5025139;28;20068;-93
2022/07/06 07:51:13;;;;;;;2.28;0.68;;;35.70;34.60;;;;;;5009343;28;20053;-92
2022/07/06 07:53:39;;;;;;;1.30;0.80;;;35.40;35.40;;;;;;5034704;28;20021;-93
2022/07/06 07:56:05;;;;;;;2.22;0.63;;;35.30;35.40;;;;;;5023220;28;20485;-92
2022/07/06 07:58:31;;;;;;;5.20;0.57;;;35.50;34.90;;;;;;5024817;28;20030;-91
2022/07/06 08:00:58;;;;;;;3.25;0.80;;;35.70;34.50;;;;;;5018106;28;20085;-92
2022/07/06 08:03:23;;;;;;;0.70;0.60;;;35.70;32.90;;;;;;5023307;28;20033;-92
2022/07/06 08:05:50;;;;;;;2.88;0.65;;;35.80;33.50;;;;;;5018116;28;20415;-93
2022/07/06 08:08:16;;;;;;;1.58;0.63;;;36.00;34.30;;;;;;5024510;28;20030;-93
2022/07/06 08:10:41;;;;;;;1.63;0.70;;;36.50;33.70;;;;;;5001373;28;20030;-91
2022/07/06 08:13:07;;;;;;;1.20;0.70;;;36.70;33.90;;;;;;5017734;28;20056;-91
2022/07/06 08:15:34;;;;;;;2.67;0.60;;;36.00;34.00;;;;;;5028125;28;20030;-93
2022/07/06 08:17:59;;;;;;;2.95;0.73;;;35.50;34.50;;;;;;5006011;28;20018;-91
2022/07/06 08:20:25;;;;;;;2.60;0.65;;;35.20;34.80;;;;;;5007086;28;20108;-92
2022/07/06 08:22:51;;;;;;;1.15;0.73;;;35.80;35.10;;;;;;5008244;28;20076;-92
2022/07/06 08:25:17;;;;;;;1.75;0.70;;;36.50;34.30;;;;;;5036564;28;20141;-93
2022/07/06 08:27:43;;;;;;;1.15;0.70;;;36.80;31.30;;;;;;5027034;28;20849;-91
2022/07/06 08:30:10;;;;;;;1.98;0.65;;;37.30;31.50;;;;;;5022778;28;20084;-92
2022/07/06 08:32:43;;;;;;;2.05;0.60;;;37.40;31.40;;;;;;5027120;28;20057;-92
2022/07/06 08:35:09;;;;;;;1.55;0.70;;;36.00;33.00;;;;;;5020456;28;20267;-92
2022/07/06 08:37:35;;;;;;;2.28;0.90;;;35.10;35.40;;;;;;5021297;28;20030;-93
2022/07/06 08:40:01;;;;;;;1.23;0.68;;;33.60;36.70;;;;;;5005466;28;20022;-91
2022/07/06 08:42:31;;;;;;;4.35;0.80;;;32.30;39.10;;;;;;5016265;28;20393;-91
2022/07/06 08:45:05;;;;;;;1.17;0.60;;;31.00;40.80;;;;;;5008165;28;20029;-91
2022/07/06 08:47:31;;;;;;;1.88;0.70;;;31.10;41.70;;;;;;5006101;28;20040;-92
2022/07/06 08:49:57;;;;;;;1.13;0.80;;;31.60;40.90;;;;;;5024330;28;20025;-92
2022/07/06 08:52:23;;;;;;;2.33;0.80;;;32.00;39.60;;;;;;5031419;28;20091;-94
2022/07/06 08:54:49;;;;;;;2.05;0.80;;;32.60;39.00;;;;;;5030539;28;20030;-92
2022/07/06 08:57:16;;;;;;;1.77;0.80;;;33.50;38.30;;;;;;5032741;28;20025;-92
2022/07/06 08:59:42;;;;;;;1.40;0.60;;;34.30;37.50;;;;;;5038254;28;20510;-94
2022/07/06 09:02:10;;;;;;;2.85;0.80;;;34.70;35.90;;;;;;5025305;28;20125;-92
2022/07/06 09:04:37;;;;;;;0.73;0.70;;;34.50;36.30;;;;;;5014095;28;20030;-92
2022/07/06 09:07:03;;;;;;;2.35;0.80;;;33.70;36.60;;;;;;5030690;28;20120;-93
2022/07/06 09:09:33;;;;;;;2.78;0.80;;;32.50;38.40;;;;;;5022177;28;20022;-93
2022/07/06 09:11:59;;;;;;;0.95;0.77;;;31.50;39.20;;;;;;5019423;28;20034;-91
2022/07/06 09:14:25;;;;;;;1.83;0.98;;;30.70;40.40;;;;;;5034489;28;20033;-91
2022/07/06 09:17:03;;;;;;;1.63;0.70;;;30.80;41.80;;;;;;5026420;28;20025;-92
2022/07/06 09:19:31;;;;;;;5.30;0.90;;;31.50;40.30;;;;;;5028448;28;20034;-90
2022/07/06 09:21:57;;;;;;;2.03;0.85;;;32.00;39.50;;;;;;5030744;28;20504;-93
2022/07/06 09:24:22;;;;;;;2.45;0.80;;;31.90;39.50;;;;;;5043749;28;20022;-94
2022/07/06 09:26:48;;;;;;;4.47;1.05;;;32.00;39.80;;;;;;5033127;28;20022;-92
2022/07/06 09:29:14;;;;;;;1.85;0.93;;;32.30;39.40;;;;;;5027044;28;20037;-92
2022/07/06 09:31:40;;;;;;;1.40;0.85;;;32.10;39.20;;;;;;5031465;28;20026;-94
2022/07/06 09:34:10;;;;;;;2.17;0.90;;;32.00;38.80;;;;;;5016978;28;20529;-93
2022/07/06 09:36:44;;;;;;;2.00;0.98;;;31.60;39.90;;;;;;5027026;28;20038;-93
2022/07/06 09:39:26;;;;;;;2.45;0.82;;;31.90;40.20;;;;;;5015650;28;20029;-92
2022/07/06 09:41:56;;;;;;;2.38;1.00;;;32.00;37.90;;;;;;5017275;28;20054;-92
2022/07/06 09:44:28;;;;;;;;;;;32.40;38.80;;;;;;4999454;28;20026;-92
2022/07/06 09:46:59;;;;;;;2.85;0.80;;;33.10;36.70;;;;;;5001945;28;19965;-93
2022/07/06 09:49:25;;;;;;;2.22;1.08;;;34.60;35.90;;;;;;5013048;28;20375;-94
2022/07/06 09:51:54;;;;;;;2.47;0.95;;;34.90;34.90;;;;;;5017611;28;20022;-92
2022/07/06 09:54:19;;;;;;;1.80;0.73;;;34.20;35.70;;;;;;5023317;28;20010;-93
2022/07/06 09:56:52;;;;;;;2.08;0.82;;;34.00;36.90;;;;;;5011741;28;20092;-93
2022/07/06 09:59:21;;;;;;;1.90;0.80;;;34.90;35.50;;;;;;5020961;28;20528;-92
2022/07/06 10:01:47;;;;;;;2.15;0.70;;;35.50;34.40;;;;;;5000681;28;20121;-93
2022/07/06 10:04:14;;;;;;;1.20;0.70;;;35.90;33.50;;;;;;5000360;28;20220;-93
2022/07/06 10:06:40;;;;;;;2.50;0.70;;;36.60;32.60;;;;;;4996926;28;20037;-93
2022/07/06 10:09:08;;;;;;;4.28;0.90;;;37.30;33.10;;;;;;5014352;28;20023;-94
2022/07/06 10:11:49;;;;;;;1.20;0.70;;;37.30;32.00;;;;;;5013555;28;20121;-94
2022/07/06 10:14:18;;;;;;;3.60;0.90;;;36.60;31.40;;;;;;5001640;28;20014;-95
2022/07/06 10:16:45;;;;;;;1.42;0.68;;;35.40;32.70;;;;;;5013517;28;20037;-94
2022/07/06 10:19:11;;;;;;;2.47;0.75;;;35.20;33.70;;;;;;5027155;28;20030;-93
2022/07/06 10:21:38;;;;;;;2.67;0.88;;;34.30;33.60;;;;;;5011941;28;20525;-92
2022/07/06 10:24:06;;;;;;;1.98;0.85;;;33.60;36.10;;;;;;5010393;28;20030;-92
2022/07/06 10:26:35;;;;;;;2.53;0.88;;;34.20;35.00;;;;;;4999231;28;20567;-93
2022/07/06 10:29:03;;;;;;;5.80;0.90;;;35.30;33.80;;;;;;5036533;28;20046;-93
2022/07/06 10:31:30;;;;;;;0.80;0.70;;;35.20;33.60;;;;;;5000651;28;20122;-92
2022/07/06 10:34:05;;;;;;;3.72;0.85;;;34.50;34.50;;;;;;5006256;28;20033;-90
2022/07/06 10:36:40;;;;;;;1.40;0.80;;;33.20;36.80;;;;;;5042041;28;20056;-91
2022/07/06 10:41:51;;;;;;;3.47;1.08;;;30.40;40.30;;;;;;5033295;28;20121;-94
2022/07/06 10:44:20;;;;;;;2.15;1.02;;;29.00;42.20;;;;;;4999750;28;20078;-93
2022/07/06 10:46:52;;;;;;;3.38;1.17;;;28.30;43.40;;;;;;5005313;28;20042;-94
2022/07/06 10:49:19;;;;;;;1.75;0.80;;;27.50;44.80;;;;;;4991799;28;20031;-93
2022/07/06 10:51:44;;;;;;;1.65;0.90;;;27.20;45.50;;;;;;5008569;28;20033;-92
2022/07/06 10:54:11;;;;;;;1.60;0.95;;;26.90;46.20;;;;;;5013884;28;20418;-93
2022/07/06 10:56:37;;;;;;;2.35;1.00;;;26.80;46.10;;;;;;5010972;28;20041;-92
2022/07/06 10:59:10;;;;;;;1.15;0.98;;;27.50;47.10;;;;;;5004982;28;20038;-91
2022/07/06 11:01:35;;;;;;;3.70;1.10;;;28.80;44.50;;;;;;5012607;28;20684;-90
2022/07/06 11:04:02;;;;;;;3.08;0.80;;;30.10;43.20;;;;;;5022814;28;20046;-93
2022/07/06 11:06:31;;;;;;;1.85;0.80;;;30.90;40.90;;;;;;5015262;28;20080;-92
2022/07/06 11:09:05;;;;;;;3.80;0.90;;;31.50;40.10;;;;;;5002227;28;20046;-92
2022/07/06 11:11:33;;;;;;;2.45;0.93;;;32.10;38.20;;;;;;5009446;28;20112;-91
2022/07/06 11:14:02;;;;;;;2.58;0.98;;;32.60;38.30;;;;;;5002271;28;20029;-91
2022/07/06 11:16:33;;;;;;;2.75;1.10;;;32.70;38.10;;;;;;5013575;28;20494;-91
2022/07/06 11:19:15;;;;;;;8.55;0.80;;;32.40;38.80;;;;;;5013287;28;20033;-93
2022/07/06 11:21:56;;;;;;;0.77;0.70;;;32.10;38.40;;;;;;4993441;28;20076;-93
2022/07/06 11:24:23;;;;;;;;;;;31.80;38.70;;;;;;4995379;28;20026;-92
2022/07/06 11:26:51;;;;;;;2.90;0.95;;;32.10;35.30;;;;;;5015722;28;20098;-92
2022/07/06 11:29:21;;;;;;;3.70;0.80;;;32.10;36.80;;;;;;5011679;28;20055;-92
2022/07/06 11:31:48;;;;;;;2.42;0.90;;;31.60;37.60;;;;;;5014717;28;20037;-93
2022/07/06 11:34:20;;;;;;;1.92;0.80;;;30.30;38.60;;;;;;5013443;28;20056;-92
2022/07/06 11:36:46;;;;;;;2.13;0.73;;;29.40;40.20;;;;;;5009345;28;20998;-93
2022/07/06 11:39:12;;;;;;;3.92;0.88;;;29.00;42.60;;;;;;5014573;28;20493;-92
2022/07/06 11:41:37;;;;;;;4.80;0.93;;;29.20;43.00;;;;;;5026078;28;20113;-92
2022/07/06 11:44:03;;;;;;;2.67;0.60;;;29.20;42.10;;;;;;5007827;28;20046;-90
2022/07/06 11:46:30;;;;;;;1.92;0.77;;;29.60;40.10;;;;;;4987512;28;20037;-89
2022/07/06 11:49:00;;;;;;;2.08;0.80;;;29.80;39.70;;;;;;4993561;28;20060;-92
2022/07/06 11:51:28;;;;;;;2.47;0.90;;;29.70;38.30;;;;;;5045750;28;20485;-92
2022/07/06 11:53:59;;;;;;;1.90;0.70;;;29.80;38.00;;;;;;4998624;28;20018;-90
2022/07/06 11:56:29;;;;;;;2.38;0.52;;;29.90;38.40;;;;;;4992185;28;20042;-92
2022/07/06 11:58:59;;;;;;;2.65;0.80;;;30.20;38.90;;;;;;4999116;28;20022;-91
2022/07/06 12:01:28;;;;;;;2.63;0.80;;;30.30;38.20;;;;;;5011348;28;20045;-91
2022/07/06 12:03:58;;;;;;;1.75;0.60;;;30.60;38.30;;;;;;5004210;28;20026;-92
2022/07/06 12:06:25;;;;;;;2.27;0.67;;;30.40;36.50;;;;;;5016312;28;20026;-91
2022/07/06 12:08:52;;;;;;;2.67;0.60;;;30.30;36.40;;;;;;5008039;28;20069;-92
2022/07/06 12:11:29;;;;;;;0.85;0.60;;;30.30;36.90;;;;;;5006750;28;20023;-92
2022/07/06 12:13:58;;;;;;;1.42;0.60;;;30.50;37.00;;;;;;5025993;28;20021;-91
2022/07/06 12:16:34;;;;;;;2.08;0.60;;;30.70;36.10;;;;;;5022827;28;20030;-90
2022/07/06 12:19:01;;;;;;;2.13;0.90;;;30.70;37.20;;;;;;5021960;28;20018;-94
2022/07/06 12:21:27;;;;;;;1.52;0.73;;;30.30;36.20;;;;;;5017325;28;20050;-93
2022/07/06 12:23:54;;;;;;;2.05;0.70;;;29.60;37.00;;;;;;5034549;28;20088;-92
2022/07/06 12:26:29;;;;;;;2.95;0.50;;;29.40;37.90;;;;;;5005397;28;20010;-94
2022/07/06 12:29:10;;;;;;;1.88;0.70;;;29.50;37.50;;;;;;5003558;28;20094;-94
2022/07/06 12:31:43;;;;;;;0.80;0.50;;;29.60;37.60;;;;;;5037469;28;20022;-95
2022/07/06 12:34:23;;;;;;;1.85;0.75;;;29.40;36.30;;;;;;5035369;28;20037;-94
2022/07/06 12:36:53;;;;;;;2.13;0.60;;;29.00;37.90;;;;;;5008543;28;20033;-93
2022/07/06 12:39:21;;;;;;;1.67;0.85;;;28.80;39.40;;;;;;5017688;28;20030;-93
2022/07/06 12:41:56;;;;;;;1.80;0.82;;;28.60;39.40;;;;;;5021168;28;20031;-91
2022/07/06 12:44:25;;;;;;;2.03;0.70;;;28.30;40.80;;;;;;5003355;28;20018;-94
2022/07/06 12:47:12;;;;;;;0.90;0.55;;;28.20;40.90;;;;;;5032972;28;20056;-94
2022/07/06 12:49:39;;;;;;;3.97;0.68;;;28.40;40.30;;;;;;5032992;28;20058;-94
2022/07/06 12:52:09;;;;;;;0.88;0.60;;;28.60;39.90;;;;;;5026196;28;20062;-93
2022/07/06 12:54:40;;;;;;;1.48;0.88;;;28.90;39.80;;;;;;5013925;28;20022;-93